Benton, Kentucky
Current Conditions -  °F | °C
As of 5:15 AM on Monday 22 Dec 2014 (Local Time) from KCEY Reporting Station
Overcast Overcast  
Wind Chill: 41°   Ceiling: 800
Heat Index: 45°   Visibility: 7mi
Dew Point: 43°   Wind: 6mph
Humidity: 93%   Direction: 150°SSE
Pressure: 29.88"   Gusts: NA
Location:  36.86°N, 88.35°W
Report Text: KCEY 221115Z AUTO 15005KT 7SM BKN008 OVC019 07/06 A2988 RMK AO1
Loading
Personal Weather Stations






























Interactive Weather Map New forecast layout! Learn more

10-Day Weather Forecast

Advertisements
Track Severe Weather on mobile